Time;durP1;ratioP1;P1;durP2;ratioP2;P2;SDS_P1;SDS_P2;PMS_P1;PMS_P2;Temp;Humidity;BMP_temperature;BMP_pressure;BME280_temperature;BME280_humidity;BME280_pressure;Samples;Min_cycle;Max_cycle;Signal;HPM_P1;HPM_P2
2021/04/30 00:00:37;;;;;;;27.27;16.90;;;12.00;59.40;;;;;;5155846;27;20034;-75
2021/04/30 00:03:03;;;;;;;27.98;17.00;;;11.90;59.40;;;;;;5154703;27;20107;-75
2021/04/30 00:05:29;;;;;;;33.50;19.50;;;11.90;59.50;;;;;;5155826;27;20425;-76
2021/04/30 00:07:58;;;;;;;33.72;18.98;;;11.90;59.70;;;;;;5155179;27;20106;-76
2021/04/30 00:10:25;;;;;;;38.53;19.13;;;11.90;59.80;;;;;;5155398;27;20037;-76
2021/04/30 00:12:51;;;;;;;42.55;20.33;;;11.80;59.90;;;;;;5155068;27;20376;-76
2021/04/30 00:15:17;;;;;;;45.13;22.10;;;11.80;60.00;;;;;;5155487;27;20025;-76
2021/04/30 00:17:43;;;;;;;56.58;25.10;;;11.80;60.00;;;;;;5154822;27;20022;-76
2021/04/30 00:20:09;;;;;;;48.33;21.58;;;11.80;60.10;;;;;;5155183;27;20033;-76
2021/04/30 00:22:35;;;;;;;38.30;20.88;;;11.70;60.20;;;;;;5155086;27;20027;-76
2021/04/30 00:25:02;;;;;;;27.13;15.40;;;11.80;60.30;;;;;;5155050;27;20032;-76
2021/04/30 00:27:27;;;;;;;21.88;14.70;;;11.70;60.30;;;;;;5155104;27;20063;-77
2021/04/30 00:29:53;;;;;;;28.23;15.65;;;11.70;60.50;;;;;;5154405;27;20061;-76
2021/04/30 00:32:20;;;;;;;35.30;18.98;;;11.70;60.60;;;;;;5154433;27;20043;-76
2021/04/30 00:34:46;;;;;;;75.93;45.30;;;11.60;60.70;;;;;;5154994;27;20424;-76
2021/04/30 00:37:11;;;;;;;54.80;31.70;;;11.60;60.80;;;;;;5154996;27;20035;-76
2021/04/30 00:39:37;;;;;;;23.95;14.75;;;11.60;60.90;;;;;;5154710;27;20031;-76
2021/04/30 00:42:04;;;;;;;25.27;14.85;;;11.60;61.00;;;;;;5154352;27;20034;-76
2021/04/30 00:44:30;;;;;;;20.27;12.98;;;11.60;61.20;;;;;;5154619;27;20474;-76
2021/04/30 00:46:56;;;;;;;25.38;16.10;;;11.50;61.20;;;;;;5136055;27;20027;-76
2021/04/30 00:49:22;;;;;;;37.50;20.92;;;11.50;61.30;;;;;;5155015;27;20023;-76
2021/04/30 00:51:48;;;;;;;33.47;19.30;;;11.50;61.40;;;;;;5136311;27;20421;-77
2021/04/30 00:54:14;;;;;;;27.17;17.45;;;11.50;61.50;;;;;;5154810;27;20034;-76
2021/04/30 00:56:40;;;;;;;32.00;19.33;;;11.50;61.60;;;;;;5154366;27;20444;-76
2021/04/30 00:59:06;;;;;;;24.70;16.60;;;11.40;61.70;;;;;;5154498;27;20101;-76
2021/04/30 01:01:33;;;;;;;24.30;15.85;;;11.40;61.80;;;;;;5136160;27;20023;-76
2021/04/30 01:03:59;;;;;;;23.70;14.90;;;11.40;61.90;;;;;;5154186;27;20444;-76
2021/04/30 01:06:24;;;;;;;28.00;15.93;;;11.40;62.10;;;;;;5154675;27;20110;-76
2021/04/30 01:08:50;;;;;;;31.20;17.20;;;11.30;62.20;;;;;;5154923;27;20448;-77
2021/04/30 01:11:16;;;;;;;28.20;17.65;;;11.40;62.30;;;;;;5135983;27;20041;-76
2021/04/30 01:13:42;;;;;;;29.80;18.92;;;11.30;62.40;;;;;;5155815;27;20030;-76
2021/04/30 01:16:08;;;;;;;28.25;17.85;;;11.30;62.40;;;;;;5158274;27;20472;-76
2021/04/30 01:18:46;;;;;;;28.38;18.42;;;11.30;62.50;;;;;;5158501;27;20027;-77
2021/04/30 01:21:13;;;;;;;24.50;16.15;;;11.30;62.70;;;;;;5158585;27;20491;-76
2021/04/30 01:23:47;;;;;;;22.00;16.38;;;11.20;62.70;;;;;;5158649;27;20095;-75
2021/04/30 01:26:14;;;;;;;22.83;15.90;;;11.20;63.00;;;;;;5158378;27;20029;-75
2021/04/30 01:28:39;;;;;;;29.30;18.88;;;11.20;62.90;;;;;;5158296;27;20661;-75
2021/04/30 01:31:05;;;;;;;26.92;16.58;;;11.10;62.90;;;;;;5157953;27;20122;-75
2021/04/30 01:33:31;;;;;;;28.55;18.40;;;11.10;63.10;;;;;;5158057;27;20380;-75
2021/04/30 01:35:56;;;;;;;28.77;17.63;;;11.10;63.20;;;;;;5158071;27;20370;-76
2021/04/30 01:38:22;;;;;;;32.85;20.67;;;11.10;63.40;;;;;;5158222;27;20022;-75
2021/04/30 01:40:48;;;;;;;31.77;19.45;;;11.00;63.40;;;;;;5157938;27;20037;-76
2021/04/30 01:43:19;;;;;;;31.33;18.65;;;11.00;63.50;;;;;;5158003;27;20027;-76
2021/04/30 01:45:52;;;;;;;31.27;20.30;;;11.00;63.70;;;;;;5157953;27;20052;-76
2021/04/30 01:48:23;;;;;;;30.95;19.67;;;11.00;63.70;;;;;;5158120;27;20119;-75
2021/04/30 01:50:49;;;;;;;32.60;20.63;;;11.00;63.80;;;;;;5157770;27;20027;-76
2021/04/30 01:53:19;;;;;;;35.40;20.13;;;10.90;63.80;;;;;;5157878;27;20062;-76
2021/04/30 01:55:45;;;;;;;29.80;19.52;;;10.90;64.00;;;;;;5158131;27;20019;-75
2021/04/30 01:58:11;;;;;;;31.63;20.20;;;10.90;64.10;;;;;;5157781;27;20079;-76
2021/04/30 02:00:38;;;;;;;35.50;21.10;;;10.80;64.20;;;;;;5157952;27;20031;-76
2021/04/30 02:03:04;;;;;;;34.25;22.35;;;10.80;64.40;;;;;;5157791;27;20415;-76
2021/04/30 02:05:32;;;;;;;32.88;21.20;;;10.80;65.20;;;;;;5157794;27;20376;-76
2021/04/30 02:08:06;;;;;;;31.45;19.65;;;10.80;64.70;;;;;;5157787;27;20023;-76
2021/04/30 02:10:32;;;;;;;35.80;20.15;;;10.80;64.90;;;;;;5157591;27;20026;-76
2021/04/30 02:12:59;;;;;;;37.90;20.77;;;10.80;64.80;;;;;;5157804;27;20398;-76
2021/04/30 02:15:28;;;;;;;31.33;17.77;;;10.80;64.90;;;;;;5138858;27;20031;-76
2021/04/30 02:17:54;;;;;;;30.23;18.80;;;10.80;65.00;;;;;;5157548;27;20359;-76
2021/04/30 02:20:21;;;;;;;25.90;17.30;;;10.80;65.00;;;;;;5139386;27;20034;-76
2021/04/30 02:22:47;;;;;;;29.67;17.65;;;10.80;65.00;;;;;;5157359;27;20027;-76
2021/04/30 02:25:15;;;;;;;31.98;18.95;;;10.70;65.10;;;;;;5156325;27;20075;-76
2021/04/30 02:27:41;;;;;;;32.08;19.25;;;10.70;65.20;;;;;;5157190;27;20027;-76
2021/04/30 02:30:09;;;;;;;31.88;17.85;;;10.70;65.30;;;;;;5157047;27;20045;-76
2021/04/30 02:32:36;;;;;;;34.20;18.80;;;10.60;65.40;;;;;;5156787;27;20113;-78
2021/04/30 02:35:04;;;;;;;33.25;21.00;;;10.60;65.60;;;;;;5157293;27;20087;-79
2021/04/30 02:37:30;;;;;;;36.53;22.60;;;10.60;65.70;;;;;;5153541;27;20050;-79
2021/04/30 02:39:55;;;;;;;32.33;19.95;;;10.60;65.90;;;;;;5144896;27;20441;-78
2021/04/30 02:42:21;;;;;;;27.42;16.95;;;10.50;66.00;;;;;;5134215;27;20031;-78
2021/04/30 02:44:47;;;;;;;30.27;19.23;;;10.50;66.20;;;;;;5145871;27;20061;-79
2021/04/30 02:47:14;;;;;;;28.15;17.05;;;10.50;66.30;;;;;;5145188;27;20102;-78
2021/04/30 02:49:42;;;;;;;27.30;18.10;;;10.50;66.40;;;;;;5144026;27;20057;-78
2021/04/30 02:52:10;;;;;;;25.40;17.00;;;10.50;66.50;;;;;;5145135;27;20379;-78
2021/04/30 02:54:37;;;;;;;23.30;15.77;;;10.60;66.60;;;;;;5145357;27;20475;-77
2021/04/30 02:57:04;;;;;;;26.38;17.05;;;10.60;66.70;;;;;;5143676;27;20023;-78
2021/04/30 02:59:31;;;;;;;31.65;17.10;;;10.60;66.80;;;;;;5126432;27;20525;-79
2021/04/30 03:01:56;;;;;;;27.15;16.23;;;10.60;66.70;;;;;;5145500;27;20056;-78
2021/04/30 03:04:23;;;;;;;31.73;17.30;;;10.70;66.80;;;;;;5143849;27;20086;-78
2021/04/30 03:06:48;;;;;;;29.10;18.42;;;10.70;66.80;;;;;;5144784;27;20401;-79
2021/04/30 03:09:14;;;;;;;36.17;19.52;;;10.70;66.80;;;;;;5145190;27;20026;-78
2021/04/30 03:11:40;;;;;;;32.53;18.10;;;10.70;66.70;;;;;;5143033;27;20034;-79
2021/04/30 03:14:06;;;;;;;36.53;20.23;;;10.70;66.80;;;;;;5145301;27;20018;-78
2021/04/30 03:16:32;;;;;;;33.47;19.63;;;10.80;66.80;;;;;;5144326;27;20394;-78
2021/04/30 03:18:58;;;;;;;33.63;20.63;;;10.80;67.30;;;;;;5143104;27;20093;-78
2021/04/30 03:21:24;;;;;;;35.30;20.90;;;10.80;66.80;;;;;;5145826;27;20110;-78
2021/04/30 03:23:49;;;;;;;37.78;20.17;;;10.90;66.80;;;;;;5144241;27;20031;-78
2021/04/30 03:26:15;;;;;;;34.15;20.25;;;10.80;66.80;;;;;;5145669;27;20047;-78
2021/04/30 03:28:41;;;;;;;32.83;19.38;;;10.90;66.90;;;;;;5118240;27;20031;-79
2021/04/30 03:31:07;;;;;;;29.88;18.58;;;10.90;66.90;;;;;;5135194;27;20142;-78
2021/04/30 03:33:32;;;;;;;34.75;19.38;;;10.90;66.80;;;;;;5139900;27;20039;-80
2021/04/30 03:35:58;;;;;;;30.45;17.98;;;10.90;66.80;;;;;;5142854;27;20044;-78
2021/04/30 03:38:24;;;;;;;29.75;18.23;;;11.00;66.80;;;;;;5143150;27;20035;-78
2021/04/30 03:40:50;;;;;;;32.03;18.00;;;11.00;66.80;;;;;;5144801;27;20023;-79
2021/04/30 03:43:15;;;;;;;28.17;18.70;;;11.10;66.80;;;;;;5142845;27;20031;-78
2021/04/30 03:45:42;;;;;;;35.83;19.13;;;11.20;66.80;;;;;;5126251;27;20023;-80
2021/04/30 03:48:08;;;;;;;34.35;19.80;;;11.20;66.70;;;;;;5144364;27;20022;-79
2021/04/30 03:50:34;;;;;;;36.20;21.05;;;11.30;66.70;;;;;;5143135;27;20504;-80
2021/04/30 03:53:00;;;;;;;30.02;18.50;;;11.30;66.60;;;;;;5144963;27;20099;-79
2021/04/30 03:55:26;;;;;;;26.13;18.42;;;11.40;66.60;;;;;;5143923;27;20054;-80
2021/04/30 03:57:52;;;;;;;35.85;22.17;;;11.50;66.50;;;;;;5124736;27;20057;-81
2021/04/30 04:00:18;;;;;;;31.95;18.83;;;11.50;66.40;;;;;;5144653;27;20472;-79
2021/04/30 04:02:46;;;;;;;30.50;18.38;;;11.60;66.30;;;;;;5145174;27;20022;-79
2021/04/30 04:05:12;;;;;;;34.30;18.08;;;11.70;66.20;;;;;;5142798;27;20365;-80
2021/04/30 04:07:38;;;;;;;31.15;18.38;;;11.80;66.10;;;;;;5142200;27;20068;-80
2021/04/30 04:10:04;;;;;;;35.92;16.33;;;11.80;65.90;;;;;;5143468;27;20432;-79
2021/04/30 04:12:30;;;;;;;23.13;14.90;;;11.90;65.70;;;;;;5142066;27;20038;-77
2021/04/30 04:14:55;;;;;;;25.35;14.75;;;12.00;65.60;;;;;;5136184;27;20023;-80
2021/04/30 04:17:21;;;;;;;20.88;14.43;;;12.00;65.30;;;;;;5134051;27;20433;-78
2021/04/30 04:19:50;;;;;;;26.08;12.93;;;12.10;65.20;;;;;;5133984;27;20019;-78
2021/04/30 04:22:19;;;;;;;22.25;11.90;;;12.20;65.00;;;;;;5135892;27;20023;-79
2021/04/30 04:24:45;;;;;;;19.25;12.15;;;12.30;64.90;;;;;;5154486;27;20472;-80
2021/04/30 04:27:11;;;;;;;22.73;11.38;;;12.40;64.60;;;;;;5154565;27;20023;-79
2021/04/30 04:29:37;;;;;;;23.73;12.27;;;12.40;64.40;;;;;;5154496;27;20023;-80
2021/04/30 04:32:07;;;;;;;18.63;12.25;;;12.60;64.30;;;;;;5136238;27;20053;-80
2021/04/30 04:34:33;;;;;;;15.93;12.07;;;12.70;64.20;;;;;;5137107;27;20095;-79
2021/04/30 04:36:58;;;;;;;18.23;11.93;;;12.80;64.00;;;;;;5134264;28;20102;-80
2021/04/30 04:39:25;;;;;;;15.32;11.15;;;12.90;63.70;;;;;;5133782;28;20100;-79
2021/04/30 04:41:52;;;;;;;17.63;11.32;;;13.10;63.40;;;;;;5135380;27;20477;-80
2021/04/30 04:44:18;;;;;;;18.42;11.50;;;13.30;63.10;;;;;;5154566;27;20054;-77
2021/04/30 04:46:44;;;;;;;20.05;11.98;;;13.40;62.70;;;;;;5154738;27;20468;-80
2021/04/30 04:49:11;;;;;;;16.05;11.93;;;13.50;62.40;;;;;;5156878;27;20027;-79
2021/04/30 04:51:37;;;;;;;15.52;11.40;;;13.60;62.30;;;;;;5158614;27;20030;-78
2021/04/30 04:54:04;;;;;;;19.58;11.18;;;13.70;62.10;;;;;;5140849;27;20023;-79
2021/04/30 04:56:29;;;;;;;18.00;11.20;;;13.80;61.90;;;;;;5138202;27;20372;-79
2021/04/30 04:58:55;;;;;;;19.25;11.05;;;13.90;61.80;;;;;;5137727;27;20034;-79
2021/04/30 05:01:22;;;;;;;16.92;11.65;;;13.90;61.60;;;;;;5138503;27;20027;-79
2021/04/30 05:03:48;;;;;;;19.15;13.25;;;13.90;61.50;;;;;;5149401;27;20031;-79
2021/04/30 05:06:14;;;;;;;24.67;14.77;;;14.00;61.50;;;;;;5158615;27;20029;-79
2021/04/30 05:08:40;;;;;;;22.00;14.43;;;14.10;61.50;;;;;;5158485;27;20473;-79
2021/04/30 05:11:05;;;;;;;26.10;15.93;;;14.20;61.30;;;;;;5158206;27;20425;-79
2021/04/30 05:13:32;;;;;;;24.70;16.13;;;14.40;61.20;;;;;;5145927;27;20043;-80
2021/04/30 05:15:59;;;;;;;21.35;14.95;;;14.50;61.00;;;;;;5139032;27;20054;-79
2021/04/30 05:18:25;;;;;;;20.42;13.23;;;14.70;60.80;;;;;;5144049;27;20120;-78
2021/04/30 05:20:52;;;;;;;17.35;12.85;;;14.80;60.40;;;;;;5146794;27;20034;-79
2021/04/30 05:23:18;;;;;;;20.92;12.98;;;14.90;60.40;;;;;;5149063;27;20039;-79
2021/04/30 05:25:44;;;;;;;24.05;13.13;;;15.00;60.20;;;;;;5130730;27;20028;-80
2021/04/30 05:28:10;;;;;;;21.52;14.02;;;15.10;60.00;;;;;;5148144;27;20491;-79
2021/04/30 05:30:36;;;;;;;20.65;12.73;;;15.20;59.70;;;;;;5150082;27;20392;-78
2021/04/30 05:33:02;;;;;;;21.52;14.32;;;15.30;59.60;;;;;;5158128;27;20026;-80
2021/04/30 05:35:28;;;;;;;33.83;14.15;;;15.40;59.40;;;;;;5158444;27;20034;-79
2021/04/30 05:37:54;;;;;;;19.80;13.95;;;15.50;59.40;;;;;;5151522;27;20027;-79
2021/04/30 05:40:19;;;;;;;23.58;14.70;;;15.60;59.40;;;;;;5146261;27;20044;-79
2021/04/30 05:42:45;;;;;;;22.83;14.25;;;15.70;59.20;;;;;;5147614;27;20453;-78
2021/04/30 05:45:12;;;;;;;17.95;12.75;;;15.80;59.70;;;;;;5147482;27;20019;-79
2021/04/30 05:47:40;;;;;;;19.00;12.20;;;15.90;59.00;;;;;;5128981;27;20046;-80
2021/04/30 05:50:07;;;;;;;19.73;11.45;;;16.00;58.70;;;;;;5146986;27;20015;-79
2021/04/30 05:52:32;;;;;;;17.20;10.70;;;16.00;58.40;;;;;;5142455;27;20396;-79
2021/04/30 05:54:59;;;;;;;21.65;11.95;;;16.10;58.40;;;;;;5137038;27;20019;-80
2021/04/30 05:57:25;;;;;;;18.95;11.73;;;16.20;58.30;;;;;;5136957;27;20417;-79
2021/04/30 05:59:50;;;;;;;18.70;12.68;;;16.30;58.10;;;;;;5135675;27;20064;-79
2021/04/30 06:02:16;;;;;;;18.08;12.15;;;16.30;58.10;;;;;;5118277;27;20069;-79
2021/04/30 06:04:42;;;;;;;17.17;11.20;;;16.40;58.10;;;;;;5147168;27;20027;-79
2021/04/30 06:07:07;;;;;;;21.08;11.57;;;16.50;58.00;;;;;;5138761;27;20030;-79
2021/04/30 06:09:33;;;;;;;16.92;10.75;;;16.50;57.90;;;;;;5157602;27;20432;-78
2021/04/30 06:11:59;;;;;;;21.15;13.02;;;16.60;57.80;;;;;;5157031;27;20043;-80
2021/04/30 06:14:30;;;;;;;17.83;11.15;;;16.70;57.70;;;;;;5149781;27;20439;-79
2021/04/30 06:16:59;;;;;;;18.88;11.45;;;16.60;57.70;;;;;;5143857;27;20023;-79
2021/04/30 06:19:25;;;;;;;20.17;11.70;;;16.60;57.70;;;;;;5139587;27;20031;-79
2021/04/30 06:21:51;;;;;;;20.08;11.55;;;16.50;57.90;;;;;;5136056;27;20035;-80
2021/04/30 06:24:17;;;;;;;22.02;11.40;;;16.50;58.20;;;;;;5136312;27;20092;-80
2021/04/30 06:26:43;;;;;;;16.05;10.77;;;16.50;58.40;;;;;;5142219;27;20019;-79
2021/04/30 06:29:09;;;;;;;16.15;11.45;;;16.50;58.60;;;;;;5147152;27;20048;-79
2021/04/30 06:31:36;;;;;;;15.38;9.63;;;16.60;58.70;;;;;;5145217;27;20030;-80
2021/04/30 06:34:03;;;;;;;14.45;8.73;;;16.60;58.70;;;;;;5146499;27;20033;-79
2021/04/30 06:36:29;;;;;;;15.25;9.27;;;16.70;58.60;;;;;;5146525;27;20027;-79
2021/04/30 06:38:55;;;;;;;15.15;9.05;;;16.70;58.30;;;;;;5144957;27;20129;-79
2021/04/30 06:41:20;;;;;;;11.20;8.60;;;16.70;58.20;;;;;;5141257;27;20118;-79
2021/04/30 06:43:46;;;;;;;11.93;8.15;;;16.70;58.30;;;;;;5156895;27;20030;-80
2021/04/30 06:46:12;;;;;;;12.32;8.80;;;16.80;58.10;;;;;;5156450;27;20417;-80
2021/04/30 06:48:38;;;;;;;18.90;8.82;;;16.80;58.00;;;;;;5144481;27;20061;-80
2021/04/30 06:51:04;;;;;;;16.63;9.02;;;16.80;57.90;;;;;;5117459;27;20035;-80
2021/04/30 06:53:29;;;;;;;17.50;9.52;;;16.90;57.70;;;;;;5117398;27;20084;-78
2021/04/30 06:55:55;;;;;;;16.50;8.38;;;16.90;57.60;;;;;;5141388;27;20121;-79
2021/04/30 06:58:21;;;;;;;15.68;9.20;;;16.90;57.50;;;;;;5141150;27;20406;-79
2021/04/30 07:00:46;;;;;;;13.18;9.38;;;17.00;57.40;;;;;;5142637;27;20033;-79
2021/04/30 07:03:12;;;;;;;13.07;8.07;;;17.10;57.40;;;;;;5128659;27;20037;-79
2021/04/30 07:05:38;;;;;;;12.52;8.70;;;17.10;57.00;;;;;;5147958;27;20015;-78
2021/04/30 07:08:04;;;;;;;13.82;8.65;;;17.20;57.00;;;;;;5149678;27;20378;-79
2021/04/30 07:10:31;;;;;;;12.20;8.25;;;17.30;56.80;;;;;;5135575;27;20042;-78
2021/04/30 07:12:58;;;;;;;10.13;6.43;;;17.40;56.80;;;;;;5135180;27;20027;-79
2021/04/30 07:15:24;;;;;;;9.40;6.45;;;17.50;56.10;;;;;;5135239;27;20114;-79
2021/04/30 07:17:50;;;;;;;13.02;7.40;;;17.60;55.50;;;;;;5146499;27;20068;-79
2021/04/30 07:20:16;;;;;;;10.80;6.75;;;17.70;55.20;;;;;;5155802;27;20026;-79
2021/04/30 07:22:42;;;;;;;7.65;5.35;;;17.70;54.60;;;;;;5137677;27;20468;-79
2021/04/30 07:25:08;;;;;;;8.93;5.53;;;17.80;54.10;;;;;;5142154;27;20038;-79
2021/04/30 07:27:34;;;;;;;8.23;6.70;;;17.90;53.50;;;;;;5135745;27;20023;-78
2021/04/30 07:29:59;;;;;;;11.35;6.70;;;17.90;53.40;;;;;;5134989;27;20121;-79
2021/04/30 07:32:25;;;;;;;10.82;6.80;;;18.00;53.10;;;;;;5134790;27;20045;-79
2021/04/30 07:34:51;;;;;;;7.65;6.03;;;18.10;53.00;;;;;;5141442;27;20019;-81
2021/04/30 07:37:17;;;;;;;10.32;6.18;;;18.30;52.60;;;;;;5142994;27;20015;-80
2021/04/30 07:39:44;;;;;;;9.93;6.05;;;18.40;51.90;;;;;;5143727;27;20040;-80
2021/04/30 07:42:10;;;;;;;10.35;5.28;;;18.40;51.70;;;;;;5143911;27;20034;-80
2021/04/30 07:44:36;;;;;;;9.10;5.50;;;18.50;51.60;;;;;;5145150;27;20161;-81
2021/04/30 07:47:03;;;;;;;6.97;4.72;;;18.60;51.30;;;;;;5143273;27;20076;-79
2021/04/30 07:49:28;;;;;;;9.38;5.05;;;18.80;51.00;;;;;;5144190;27;20079;-81
2021/04/30 07:51:54;;;;;;;7.53;4.88;;;18.90;50.90;;;;;;5144685;27;20039;-80
2021/04/30 07:54:20;;;;;;;7.57;5.40;;;19.10;50.80;;;;;;5142638;27;20026;-80
2021/04/30 07:56:47;;;;;;;8.30;5.53;;;19.20;50.40;;;;;;5143866;27;20015;-81
2021/04/30 07:59:14;;;;;;;13.07;5.10;;;19.30;49.80;;;;;;5144449;27;20037;-79
2021/04/30 08:01:39;;;;;;;6.07;4.45;;;19.50;49.20;;;;;;5142822;27;20027;-80
2021/04/30 08:04:06;;;;;;;11.38;4.57;;;19.60;48.60;;;;;;5148883;27;20025;-78
2021/04/30 08:06:32;;;;;;;9.82;4.47;;;19.80;48.10;;;;;;5137168;27;20512;-80
2021/04/30 08:08:57;;;;;;;10.00;3.90;;;20.00;48.20;;;;;;5155885;27;20444;-87
2021/04/30 08:11:23;;;;;;;7.45;4.60;;;20.10;47.00;;;;;;5155018;27;20118;-81
2021/04/30 08:13:49;;;;;;;6.35;4.13;;;20.30;46.80;;;;;;5152942;27;20111;-79
2021/04/30 08:16:15;;;;;;;8.82;4.32;;;20.50;46.70;;;;;;5134398;27;20487;-79
2021/04/30 08:18:40;;;;;;;7.53;4.75;;;20.70;46.20;;;;;;5134562;27;20114;-80
2021/04/30 08:21:07;;;;;;;8.32;3.97;;;20.90;45.80;;;;;;5134409;27;20065;-78
2021/04/30 08:23:35;;;;;;;10.35;4.38;;;21.10;44.90;;;;;;5133943;27;20411;-77
2021/04/30 08:26:01;;;;;;;12.88;4.50;;;21.30;44.70;;;;;;5134414;27;20023;-80
2021/04/30 08:28:27;;;;;;;6.30;4.03;;;21.50;44.40;;;;;;5149950;27;20345;-80
2021/04/30 08:30:54;;;;;;;9.68;4.25;;;21.70;44.10;;;;;;5154356;27;20033;-78
2021/04/30 08:33:24;;;;;;;6.78;3.80;;;21.80;44.00;;;;;;5143463;27;20045;-87
2021/04/30 08:35:50;;;;;;;10.35;4.43;;;22.10;43.90;;;;;;5134329;27;20043;-80
2021/04/30 08:38:16;;;;;;;8.18;3.90;;;22.30;43.70;;;;;;5141769;27;20042;-79
2021/04/30 08:40:42;;;;;;;10.93;4.13;;;22.60;43.20;;;;;;5136653;27;20066;-80
2021/04/30 08:43:07;;;;;;;5.88;4.25;;;22.80;42.90;;;;;;5154953;27;20044;-80
2021/04/30 08:45:33;;;;;;;9.95;4.63;;;23.00;42.60;;;;;;5154953;27;20027;-79
2021/04/30 08:48:01;;;;;;;17.17;5.30;;;23.30;42.40;;;;;;5135212;27;20072;-79
2021/04/30 08:50:26;;;;;;;8.45;4.93;;;23.50;41.90;;;;;;5133915;28;20027;-78
2021/04/30 08:52:52;;;;;;;9.65;4.63;;;23.70;41.60;;;;;;5115524;28;20030;-80
2021/04/30 08:55:18;;;;;;;5.35;3.80;;;24.00;41.10;;;;;;5133889;28;20106;-80
2021/04/30 08:57:46;;;;;;;18.33;4.30;;;24.30;40.70;;;;;;5133987;28;20485;-79
2021/04/30 09:00:14;;;;;;;10.93;3.83;;;24.60;40.10;;;;;;5133748;28;20027;-80
2021/04/30 09:02:40;;;;;;;9.85;3.60;;;24.90;39.70;;;;;;5133706;28;20083;-80
2021/04/30 09:05:09;;;;;;;7.30;3.72;;;25.20;39.80;;;;;;5114900;28;20058;-80
2021/04/30 09:07:44;;;;;;;11.35;4.57;;;25.60;39.20;;;;;;5125989;27;20109;-80
2021/04/30 09:10:13;;;;;;;16.13;4.43;;;26.00;38.60;;;;;;5144794;27;20026;-79
2021/04/30 09:12:40;;;;;;;22.98;4.75;;;26.30;38.20;;;;;;5143481;27;20030;-79
2021/04/30 09:15:08;;;;;;;6.88;3.75;;;26.70;37.60;;;;;;5144085;27;20111;-80
2021/04/30 09:17:34;;;;;;;8.30;4.20;;;27.00;37.30;;;;;;5142677;27;20050;-79
2021/04/30 09:20:03;;;;;;;8.95;3.60;;;27.40;37.10;;;;;;5143767;27;20380;-78
2021/04/30 09:22:34;;;;;;;9.82;4.88;;;27.80;36.60;;;;;;5143420;27;20481;-79
2021/04/30 09:25:01;;;;;;;5.63;3.80;;;28.10;35.80;;;;;;5142280;27;20481;-79
2021/04/30 09:27:34;;;;;;;8.35;4.10;;;28.30;35.80;;;;;;5143389;27;20368;-79
2021/04/30 09:30:21;;;;;;;6.68;3.78;;;28.40;35.90;;;;;;5141732;27;20023;-79
2021/04/30 09:33:03;;;;;;;46.65;7.05;;;28.60;35.40;;;;;;5143669;27;20959;-79
2021/04/30 09:35:30;;;;;;;10.25;3.85;;;29.10;35.10;;;;;;5146520;27;20066;-79
2021/04/30 09:37:59;;;;;;;7.82;4.38;;;29.10;34.40;;;;;;5147131;27;20417;-80
2021/04/30 09:40:32;;;;;;;10.45;4.82;;;29.00;34.20;;;;;;5147223;27;20028;-79
2021/04/30 09:43:08;;;;;;;18.75;5.75;;;28.80;34.30;;;;;;5145128;27;20057;-80
2021/04/30 09:45:35;;;;;;;7.55;4.15;;;28.70;34.10;;;;;;5137178;27;20031;-80
2021/04/30 09:48:11;;;;;;;11.80;4.25;;;28.80;34.50;;;;;;5140339;27;20388;-80
2021/04/30 09:50:39;;;;;;;6.55;4.20;;;29.10;34.30;;;;;;5145057;27;20027;-79
2021/04/30 09:53:10;;;;;;;7.25;4.10;;;29.20;34.00;;;;;;5146495;27;20022;-79
2021/04/30 09:55:51;;;;;;;4.78;3.30;;;29.20;33.90;;;;;;5147141;27;20062;-78
2021/04/30 09:58:24;;;;;;;8.68;3.63;;;29.40;33.80;;;;;;5146977;27;20042;-80
2021/04/30 10:00:51;;;;;;;11.65;4.47;;;29.60;33.60;;;;;;5145910;27;20144;-79
2021/04/30 10:03:24;;;;;;;11.35;3.97;;;29.80;33.60;;;;;;5144397;27;20031;-79
2021/04/30 10:06:13;;;;;;;13.40;4.45;;;30.10;33.50;;;;;;5145388;27;20460;-80
2021/04/30 10:08:40;;;;;;;9.38;3.85;;;30.60;33.40;;;;;;5145559;27;20023;-79
2021/04/30 10:11:30;;;;;;;6.28;3.72;;;31.00;33.70;;;;;;5145438;27;20060;-79
2021/04/30 10:13:56;;;;;;;5.25;3.45;;;31.10;32.60;;;;;;5127906;27;20118;-79
2021/04/30 10:16:24;;;;;;;4.20;3.45;;;31.30;32.60;;;;;;5153922;27;20098;-80
2021/04/30 10:18:50;;;;;;;14.25;4.63;;;31.50;32.40;;;;;;5156797;27;20038;-79
2021/04/30 10:21:18;;;;;;;11.95;3.75;;;31.60;32.10;;;;;;5156867;27;20027;-79
2021/04/30 10:23:50;;;;;;;7.57;3.33;;;31.70;32.10;;;;;;5156619;27;20026;-79
2021/04/30 10:26:17;;;;;;;13.55;3.88;;;32.00;31.90;;;;;;5157031;27;20038;-79
2021/04/30 10:28:51;;;;;;;7.03;3.42;;;31.90;31.50;;;;;;5155394;27;20026;-79
2021/04/30 10:31:22;;;;;;;6.85;3.55;;;31.90;32.00;;;;;;5157013;27;20038;-79
2021/04/30 10:33:57;;;;;;;7.65;3.47;;;31.80;31.30;;;;;;5157311;27;20041;-79
2021/04/30 10:36:33;;;;;;;7.20;3.55;;;31.90;31.50;;;;;;5157260;27;20023;-87
2021/04/30 10:39:01;;;;;;;10.07;3.38;;;31.70;31.40;;;;;;5136832;27;20023;-84
2021/04/30 10:41:38;;;;;;;5.75;3.30;;;31.60;31.70;;;;;;5156212;27;20022;-82
2021/04/30 10:44:31;;;;;;;4.80;3.00;;;31.60;31.70;;;;;;5146166;27;20022;-81
2021/04/30 10:47:11;;;;;;;11.82;3.72;;;31.60;32.40;;;;;;5155752;27;20082;-83
2021/04/30 10:49:37;;;;;;;9.35;3.75;;;31.70;31.70;;;;;;5154558;27;20093;-83
2021/04/30 10:52:16;;;;;;;6.05;3.25;;;31.80;31.70;;;;;;5159102;27;20027;-83
2021/04/30 10:54:43;;;;;;;8.43;3.40;;;32.00;31.60;;;;;;5156299;27;20378;-87
2021/04/30 10:57:09;;;;;;;8.23;3.55;;;32.10;31.50;;;;;;5156726;27;20105;-86
2021/04/30 10:59:39;;;;;;;5.32;2.80;;;32.20;31.30;;;;;;5155996;27;20023;-79
2021/04/30 11:02:28;;;;;;;6.85;3.17;;;32.20;31.30;;;;;;5155845;27;20086;-80
2021/04/30 11:05:03;;;;;;;9.60;4.07;;;31.70;31.50;;;;;;5155522;27;20038;-79
2021/04/30 11:07:52;;;;;;;10.23;3.13;;;31.80;31.50;;;;;;5155986;27;20468;-78
2021/04/30 11:10:26;;;;;;;4.75;3.28;;;31.90;31.40;;;;;;5148962;27;20035;-79
2021/04/30 11:13:04;;;;;;;9.98;3.03;;;32.30;31.30;;;;;;5155106;27;20030;-80
2021/04/30 11:15:50;;;;;;;8.65;3.50;;;32.60;31.10;;;;;;5155836;27;20071;-79
2021/04/30 11:18:21;;;;;;;4.63;3.00;;;32.90;30.90;;;;;;5155851;27;20071;-78
2021/04/30 11:21:09;;;;;;;7.13;3.40;;;32.90;30.70;;;;;;5154865;27;20031;-79
2021/04/30 11:23:52;;;;;;;6.05;3.30;;;32.50;30.60;;;;;;5136410;27;20062;-81
2021/04/30 11:26:18;;;;;;;4.38;2.92;;;32.10;31.00;;;;;;5137888;27;20027;-79
2021/04/30 11:28:44;;;;;;;3.80;3.00;;;31.80;31.20;;;;;;5151813;27;20098;-79
2021/04/30 11:31:27;;;;;;;9.38;3.72;;;31.70;31.40;;;;;;5149694;27;20134;-79
2021/04/30 11:34:16;;;;;;;5.93;3.20;;;31.90;31.50;;;;;;5154448;27;20031;-79
2021/04/30 11:36:51;;;;;;;5.50;2.97;;;32.20;31.30;;;;;;5155479;27;20031;-79
2021/04/30 11:39:32;;;;;;;4.40;3.10;;;32.30;31.00;;;;;;5154447;27;20027;-80
2021/04/30 11:42:04;;;;;;;4.50;3.03;;;32.60;30.80;;;;;;5154177;27;20054;-81
2021/04/30 11:44:30;;;;;;;10.00;4.05;;;32.80;30.70;;;;;;5155058;27;20398;-80
2021/04/30 11:47:03;;;;;;;5.65;2.80;;;32.80;30.60;;;;;;5155157;27;20056;-80
2021/04/30 11:49:30;;;;;;;14.02;3.38;;;32.50;30.50;;;;;;5154982;27;20023;-82
2021/04/30 11:51:56;;;;;;;11.20;3.40;;;31.90;30.70;;;;;;5153862;27;20406;-81
2021/04/30 11:54:34;;;;;;;8.77;3.03;;;31.80;31.30;;;;;;5142553;27;20098;-82
2021/04/30 11:57:11;;;;;;;11.05;3.70;;;32.20;31.10;;;;;;5144122;27;20026;-80
2021/04/30 11:59:38;;;;;;;4.90;3.22;;;32.50;31.00;;;;;;5142244;27;20498;-82
2021/04/30 12:02:05;;;;;;;6.90;3.90;;;32.40;30.90;;;;;;5147557;27;20117;-81
2021/04/30 12:07:57;;;;;;;7.38;3.47;;;32.40;31.00;;;;;;5155000;27;20585;-81
2021/04/30 12:10:29;;;;;;;5.85;3.28;;;32.20;31.20;;;;;;5136466;27;20226;-81
2021/04/30 12:12:55;;;;;;;5.68;3.70;;;32.20;31.50;;;;;;5154943;27;20035;-81
2021/04/30 12:15:31;;;;;;;6.63;3.05;;;32.00;31.50;;;;;;5154551;27;20054;-82
2021/04/30 12:17:58;;;;;;;9.02;3.58;;;32.00;31.70;;;;;;5153597;27;20039;-80
2021/04/30 12:20:26;;;;;;;5.03;3.30;;;32.20;31.70;;;;;;5154889;27;20026;-81
2021/04/30 12:23:04;;;;;;;11.18;3.80;;;32.40;31.50;;;;;;5154659;27;20464;-81
2021/04/30 12:25:44;;;;;;;9.05;3.45;;;32.50;31.40;;;;;;5154705;27;20026;-81
2021/04/30 12:28:21;;;;;;;7.85;4.22;;;32.40;31.40;;;;;;5154826;27;20023;-80
2021/04/30 12:30:55;;;;;;;6.05;3.40;;;32.20;31.40;;;;;;5154481;27;20053;-81
2021/04/30 12:33:21;;;;;;;;;;;31.80;31.50;;;;;;5155164;27;20098;-83
2021/04/30 12:35:47;;;;;;;9.75;3.72;;;31.50;31.80;;;;;;5154922;27;19973;-81
2021/04/30 12:38:13;;;;;;;6.82;3.45;;;31.00;32.00;;;;;;5154900;27;20027;-81
2021/04/30 12:40:39;;;;;;;8.40;3.65;;;30.60;32.40;;;;;;5154405;27;20148;-81
2021/04/30 12:43:04;;;;;;;7.38;3.60;;;30.30;32.70;;;;;;5154518;27;20452;-81